Terminal Aerodrome Forecast
Issued by NWS

Home | Current Version | Previous Version | Text Only | Print | Product List | Glossary On
Versions: 1 2 3 4 5 6 7 8 9 10 11 12 13
506
FTUS45 KFGZ 230526
TAFGCN
TAF
KGCN 230526Z 2306/2406 22004KT P6SM SKC
     FM231800 22010G20KT P6SM BKN080
     FM240200 28006KT P6SM SKC=

USA.gov is the U.S. government's official web portal to all federal, state and local government web resources and services.